sensor_id;sensor_type;location;lat;lon;timestamp;P1;durP1;ratioP1;P2;durP2;ratioP2
19877;SDS011;10101;52.204;9.910;2024-03-23T00:56:00;36.87;;;17.03;;
19877;SDS011;10101;52.204;9.910;2024-03-23T00:58:27;29.57;;;13.20;;
19877;SDS011;10101;52.204;9.910;2024-03-23T01:00:52;13.70;;;5.87;;
19877;SDS011;10101;52.204;9.910;2024-03-23T01:03:19;16.57;;;6.87;;
19877;SDS011;10101;52.204;9.910;2024-03-23T01:05:45;72.00;;;29.10;;
19877;SDS011;10101;52.204;9.910;2024-03-23T01:08:13;23.07;;;10.40;;
19877;SDS011;10101;52.204;9.910;2024-03-23T01:10:39;23.10;;;8.90;;
19877;SDS011;10101;52.204;9.910;2024-03-23T01:13:08;17.53;;;7.60;;
19877;SDS011;10101;52.204;9.910;2024-03-23T01:15:34;11.30;;;5.57;;
19877;SDS011;10101;52.204;9.910;2024-03-23T01:18:01;11.03;;;4.13;;
19877;SDS011;10101;52.204;9.910;2024-03-23T01:20:27;7.30;;;2.90;;
19877;SDS011;10101;52.204;9.910;2024-03-23T01:22:54;6.30;;;2.70;;
19877;SDS011;10101;52.204;9.910;2024-03-23T01:25:20;6.60;;;3.10;;
19877;SDS011;10101;52.204;9.910;2024-03-23T01:27:47;6.37;;;2.50;;
19877;SDS011;10101;52.204;9.910;2024-03-23T01:30:14;8.40;;;2.80;;
19877;SDS011;10101;52.204;9.910;2024-03-23T01:32:41;8.33;;;2.37;;
19877;SDS011;10101;52.204;9.910;2024-03-23T01:35:08;8.47;;;3.27;;
19877;SDS011;10101;52.204;9.910;2024-03-23T01:37:35;4.93;;;2.70;;
19877;SDS011;10101;52.204;9.910;2024-03-23T01:40:01;7.20;;;2.57;;
19877;SDS011;10101;52.204;9.910;2024-03-23T01:42:29;10.30;;;3.53;;
19877;SDS011;10101;52.204;9.910;2024-03-23T01:44:55;8.03;;;2.67;;
19877;SDS011;10101;52.204;9.910;2024-03-23T01:47:24;8.93;;;2.80;;
19877;SDS011;10101;52.204;9.910;2024-03-23T01:49:50;5.27;;;2.70;;
19877;SDS011;10101;52.204;9.910;2024-03-23T01:52:17;8.13;;;2.93;;
19877;SDS011;10101;52.204;9.910;2024-03-23T01:54:43;11.37;;;3.33;;
19877;SDS011;10101;52.204;9.910;2024-03-23T01:57:11;6.37;;;2.77;;
19877;SDS011;10101;52.204;9.910;2024-03-23T01:59:38;7.87;;;2.90;;
19877;SDS011;10101;52.204;9.910;2024-03-23T02:02:05;5.20;;;2.87;;
19877;SDS011;10101;52.204;9.910;2024-03-23T02:04:32;9.30;;;2.87;;
19877;SDS011;10101;52.204;9.910;2024-03-23T02:07:00;10.40;;;3.07;;
19877;SDS011;10101;52.204;9.910;2024-03-23T02:09:26;7.97;;;2.47;;
19877;SDS011;10101;52.204;9.910;2024-03-23T02:11:53;7.57;;;3.00;;
19877;SDS011;10101;52.204;9.910;2024-03-23T02:14:20;6.33;;;2.63;;
19877;SDS011;10101;52.204;9.910;2024-03-23T02:16:47;9.07;;;2.70;;
19877;SDS011;10101;52.204;9.910;2024-03-23T02:19:13;7.90;;;2.60;;
19877;SDS011;10101;52.204;9.910;2024-03-23T02:21:41;8.53;;;2.90;;
19877;SDS011;10101;52.204;9.910;2024-03-23T02:24:08;7.83;;;3.03;;
19877;SDS011;10101;52.204;9.910;2024-03-23T02:26:35;6.77;;;2.70;;
19877;SDS011;10101;52.204;9.910;2024-03-23T02:29:01;11.43;;;4.07;;
19877;SDS011;10101;52.204;9.910;2024-03-23T02:31:28;7.50;;;3.10;;
19877;SDS011;10101;52.204;9.910;2024-03-23T02:33:54;7.50;;;2.87;;
19877;SDS011;10101;52.204;9.910;2024-03-23T02:36:21;7.60;;;2.80;;
19877;SDS011;10101;52.204;9.910;2024-03-23T02:38:47;6.93;;;3.10;;
19877;SDS011;10101;52.204;9.910;2024-03-23T02:41:15;6.93;;;2.93;;
19877;SDS011;10101;52.204;9.910;2024-03-23T02:43:48;6.67;;;2.80;;
19877;SDS011;10101;52.204;9.910;2024-03-23T02:46:15;7.40;;;2.83;;
19877;SDS011;10101;52.204;9.910;2024-03-23T02:48:41;7.53;;;2.87;;
19877;SDS011;10101;52.204;9.910;2024-03-23T02:51:08;9.47;;;3.03;;
19877;SDS011;10101;52.204;9.910;2024-03-23T02:53:34;5.90;;;2.50;;
19877;SDS011;10101;52.204;9.910;2024-03-23T02:56:01;6.60;;;3.03;;
19877;SDS011;10101;52.204;9.910;2024-03-23T02:58:28;7.67;;;2.50;;
19877;SDS011;10101;52.204;9.910;2024-03-23T03:00:55;7.07;;;2.60;;
19877;SDS011;10101;52.204;9.910;2024-03-23T03:03:21;6.20;;;2.77;;
19877;SDS011;10101;52.204;9.910;2024-03-23T03:05:51;6.47;;;2.60;;
19877;SDS011;10101;52.204;9.910;2024-03-23T03:08:20;8.67;;;2.80;;
19877;SDS011;10101;52.204;9.910;2024-03-23T03:10:47;6.07;;;2.40;;
19877;SDS011;10101;52.204;9.910;2024-03-23T03:13:13;8.93;;;2.70;;
19877;SDS011;10101;52.204;9.910;2024-03-23T03:15:41;6.97;;;2.80;;
19877;SDS011;10101;52.204;9.910;2024-03-23T03:18:08;6.33;;;3.50;;
19877;SDS011;10101;52.204;9.910;2024-03-23T03:20:36;7.20;;;2.97;;
19877;SDS011;10101;52.204;9.910;2024-03-23T03:23:04;4.87;;;2.60;;
19877;SDS011;10101;52.204;9.910;2024-03-23T03:25:31;8.27;;;3.00;;
19877;SDS011;10101;52.204;9.910;2024-03-23T03:27:57;8.93;;;2.63;;
19877;SDS011;10101;52.204;9.910;2024-03-23T03:30:25;7.97;;;3.00;;
19877;SDS011;10101;52.204;9.910;2024-03-23T03:32:53;6.47;;;2.70;;
19877;SDS011;10101;52.204;9.910;2024-03-23T03:35:20;5.17;;;2.97;;
19877;SDS011;10101;52.204;9.910;2024-03-23T03:37:46;7.67;;;3.30;;
19877;SDS011;10101;52.204;9.910;2024-03-23T03:40:13;7.23;;;3.20;;
19877;SDS011;10101;52.204;9.910;2024-03-23T03:42:40;8.40;;;3.67;;
19877;SDS011;10101;52.204;9.910;2024-03-23T03:45:07;9.40;;;3.50;;
19877;SDS011;10101;52.204;9.910;2024-03-23T03:47:33;8.43;;;3.53;;
19877;SDS011;10101;52.204;9.910;2024-03-23T03:50:01;7.93;;;3.77;;
19877;SDS011;10101;52.204;9.910;2024-03-23T03:52:27;10.83;;;4.77;;
19877;SDS011;10101;52.204;9.910;2024-03-23T03:54:59;8.97;;;3.70;;
19877;SDS011;10101;52.204;9.910;2024-03-23T03:57:27;9.90;;;4.00;;
19877;SDS011;10101;52.204;9.910;2024-03-23T03:59:54;7.13;;;3.30;;
19877;SDS011;10101;52.204;9.910;2024-03-23T04:02:20;10.53;;;3.60;;
19877;SDS011;10101;52.204;9.910;2024-03-23T04:04:47;8.27;;;3.50;;
19877;SDS011;10101;52.204;9.910;2024-03-23T04:07:14;7.33;;;3.10;;
19877;SDS011;10101;52.204;9.910;2024-03-23T04:09:42;6.90;;;3.50;;
19877;SDS011;10101;52.204;9.910;2024-03-23T04:12:08;9.50;;;3.03;;
19877;SDS011;10101;52.204;9.910;2024-03-23T04:14:35;7.80;;;3.30;;
19877;SDS011;10101;52.204;9.910;2024-03-23T04:17:01;11.50;;;3.30;;
19877;SDS011;10101;52.204;9.910;2024-03-23T04:19:28;7.57;;;3.03;;
19877;SDS011;10101;52.204;9.910;2024-03-23T04:21:54;7.77;;;3.60;;
19877;SDS011;10101;52.204;9.910;2024-03-23T04:24:23;6.50;;;2.63;;
19877;SDS011;10101;52.204;9.910;2024-03-23T04:26:51;8.07;;;2.90;;
19877;SDS011;10101;52.204;9.910;2024-03-23T04:29:18;6.07;;;2.70;;
19877;SDS011;10101;52.204;9.910;2024-03-23T04:31:44;6.80;;;2.50;;
19877;SDS011;10101;52.204;9.910;2024-03-23T04:34:11;6.20;;;2.57;;
19877;SDS011;10101;52.204;9.910;2024-03-23T04:36:37;7.33;;;2.90;;
19877;SDS011;10101;52.204;9.910;2024-03-23T04:39:03;7.63;;;2.20;;
19877;SDS011;10101;52.204;9.910;2024-03-23T04:41:35;6.83;;;1.97;;
19877;SDS011;10101;52.204;9.910;2024-03-23T04:44:01;12.17;;;2.27;;
19877;SDS011;10101;52.204;9.910;2024-03-23T04:46:28;8.33;;;2.00;;
19877;SDS011;10101;52.204;9.910;2024-03-23T04:48:55;8.27;;;1.87;;
19877;SDS011;10101;52.204;9.910;2024-03-23T04:51:22;7.40;;;1.90;;
19877;SDS011;10101;52.204;9.910;2024-03-23T04:53:50;5.40;;;1.80;;
19877;SDS011;10101;52.204;9.910;2024-03-23T04:56:17;6.83;;;1.97;;
19877;SDS011;10101;52.204;9.910;2024-03-23T04:58:44;4.90;;;1.97;;
19877;SDS011;10101;52.204;9.910;2024-03-23T05:01:11;8.33;;;2.03;;
19877;SDS011;10101;52.204;9.910;2024-03-23T05:03:39;6.97;;;2.13;;
19877;SDS011;10101;52.204;9.910;2024-03-23T05:06:06;6.23;;;2.20;;
19877;SDS011;10101;52.204;9.910;2024-03-23T05:08:32;13.80;;;6.20;;
19877;SDS011;10101;52.204;9.910;2024-03-23T05:10:58;8.00;;;2.60;;
19877;SDS011;10101;52.204;9.910;2024-03-23T05:13:24;13.83;;;5.03;;
19877;SDS011;10101;52.204;9.910;2024-03-23T05:15:53;10.50;;;4.57;;
19877;SDS011;10101;52.204;9.910;2024-03-23T05:18:19;10.50;;;2.50;;
19877;SDS011;10101;52.204;9.910;2024-03-23T05:20:47;10.03;;;2.57;;
19877;SDS011;10101;52.204;9.910;2024-03-23T05:23:12;11.47;;;5.77;;
19877;SDS011;10101;52.204;9.910;2024-03-23T05:25:40;12.63;;;4.20;;
19877;SDS011;10101;52.204;9.910;2024-03-23T05:28:06;7.87;;;3.07;;
19877;SDS011;10101;52.204;9.910;2024-03-23T05:30:33;10.80;;;3.17;;
19877;SDS011;10101;52.204;9.910;2024-03-23T05:33:01;7.97;;;3.80;;
19877;SDS011;10101;52.204;9.910;2024-03-23T05:35:28;9.37;;;5.57;;
19877;SDS011;10101;52.204;9.910;2024-03-23T05:37:54;12.40;;;5.03;;
19877;SDS011;10101;52.204;9.910;2024-03-23T05:40:20;6.93;;;3.37;;
19877;SDS011;10101;52.204;9.910;2024-03-23T05:42:46;8.60;;;2.67;;
19877;SDS011;10101;52.204;9.910;2024-03-23T05:45:14;10.57;;;3.00;;
19877;SDS011;10101;52.204;9.910;2024-03-23T05:47:43;8.90;;;2.40;;
19877;SDS011;10101;52.204;9.910;2024-03-23T05:50:12;6.17;;;2.27;;
19877;SDS011;10101;52.204;9.910;2024-03-23T05:52:38;8.37;;;2.20;;
19877;SDS011;10101;52.204;9.910;2024-03-23T05:55:05;9.77;;;2.37;;
19877;SDS011;10101;52.204;9.910;2024-03-23T05:57:31;6.63;;;2.37;;
19877;SDS011;10101;52.204;9.910;2024-03-23T05:59:58;8.77;;;2.60;;
19877;SDS011;10101;52.204;9.910;2024-03-23T06:02:24;6.77;;;2.23;;
19877;SDS011;10101;52.204;9.910;2024-03-23T06:04:51;5.97;;;2.10;;
19877;SDS011;10101;52.204;9.910;2024-03-23T06:07:18;4.97;;;2.00;;
19877;SDS011;10101;52.204;9.910;2024-03-23T06:09:45;11.23;;;2.00;;
19877;SDS011;10101;52.204;9.910;2024-03-23T06:12:11;8.30;;;1.90;;
19877;SDS011;10101;52.204;9.910;2024-03-23T06:14:38;9.03;;;1.67;;
19877;SDS011;10101;52.204;9.910;2024-03-23T06:17:04;6.03;;;1.40;;
19877;SDS011;10101;52.204;9.910;2024-03-23T06:19:32;9.50;;;1.50;;
19877;SDS011;10101;52.204;9.910;2024-03-23T06:21:58;8.10;;;1.57;;
19877;SDS011;10101;52.204;9.910;2024-03-23T06:24:26;8.87;;;2.10;;
19877;SDS011;10101;52.204;9.910;2024-03-23T06:26:53;6.03;;;1.97;;
19877;SDS011;10101;52.204;9.910;2024-03-23T06:29:20;9.73;;;1.80;;
19877;SDS011;10101;52.204;9.910;2024-03-23T06:31:51;10.93;;;2.23;;
19877;SDS011;10101;52.204;9.910;2024-03-23T06:34:19;5.10;;;1.90;;
19877;SDS011;10101;52.204;9.910;2024-03-23T06:36:47;11.53;;;2.50;;
19877;SDS011;10101;52.204;9.910;2024-03-23T06:39:14;7.17;;;1.77;;
19877;SDS011;10101;52.204;9.910;2024-03-23T06:41:41;5.93;;;1.67;;
19877;SDS011;10101;52.204;9.910;2024-03-23T06:44:08;12.73;;;1.80;;
19877;SDS011;10101;52.204;9.910;2024-03-23T06:46:34;7.50;;;2.13;;
19877;SDS011;10101;52.204;9.910;2024-03-23T06:49:01;7.83;;;2.00;;
19877;SDS011;10101;52.204;9.910;2024-03-23T06:51:28;9.07;;;2.00;;
19877;SDS011;10101;52.204;9.910;2024-03-23T06:53:55;7.50;;;1.63;;
19877;SDS011;10101;52.204;9.910;2024-03-23T06:56:21;9.23;;;2.17;;
19877;SDS011;10101;52.204;9.910;2024-03-23T06:58:49;6.63;;;1.87;;
19877;SDS011;10101;52.204;9.910;2024-03-23T07:01:15;7.97;;;2.13;;
19877;SDS011;10101;52.204;9.910;2024-03-23T07:03:42;4.43;;;1.57;;
19877;SDS011;10101;52.204;9.910;2024-03-23T07:06:09;5.67;;;1.60;;
19877;SDS011;10101;52.204;9.910;2024-03-23T07:08:36;4.57;;;1.50;;
19877;SDS011;10101;52.204;9.910;2024-03-23T07:11:02;7.93;;;2.13;;
19877;SDS011;10101;52.204;9.910;2024-03-23T07:13:29;5.47;;;1.57;;
19877;SDS011;10101;52.204;9.910;2024-03-23T07:15:57;6.93;;;1.87;;
19877;SDS011;10101;52.204;9.910;2024-03-23T07:18:25;10.63;;;2.03;;
19877;SDS011;10101;52.204;9.910;2024-03-23T07:20:54;9.50;;;1.90;;
19877;SDS011;10101;52.204;9.910;2024-03-23T07:23:23;10.57;;;2.10;;
19877;SDS011;10101;52.204;9.910;2024-03-23T07:25:58;6.57;;;2.10;;
19877;SDS011;10101;52.204;9.910;2024-03-23T07:28:25;8.40;;;1.90;;
19877;SDS011;10101;52.204;9.910;2024-03-23T07:31:03;9.83;;;2.70;;
19877;SDS011;10101;52.204;9.910;2024-03-23T07:33:31;7.93;;;2.17;;
19877;SDS011;10101;52.204;9.910;2024-03-23T07:35:57;10.93;;;2.30;;
19877;SDS011;10101;52.204;9.910;2024-03-23T07:38:26;7.73;;;1.63;;
19877;SDS011;10101;52.204;9.910;2024-03-23T07:40:52;10.13;;;2.30;;
19877;SDS011;10101;52.204;9.910;2024-03-23T07:43:28;8.00;;;2.50;;
19877;SDS011;10101;52.204;9.910;2024-03-23T07:45:54;8.73;;;1.90;;
19877;SDS011;10101;52.204;9.910;2024-03-23T07:48:24;8.67;;;2.10;;
19877;SDS011;10101;52.204;9.910;2024-03-23T07:51:00;8.00;;;2.43;;
19877;SDS011;10101;52.204;9.910;2024-03-23T07:53:28;7.67;;;2.57;;
19877;SDS011;10101;52.204;9.910;2024-03-23T07:55:54;8.47;;;1.90;;
19877;SDS011;10101;52.204;9.910;2024-03-23T07:58:23;6.90;;;1.93;;
19877;SDS011;10101;52.204;9.910;2024-03-23T08:00:49;9.20;;;2.43;;
19877;SDS011;10101;52.204;9.910;2024-03-23T08:03:16;7.97;;;1.83;;
19877;SDS011;10101;52.204;9.910;2024-03-23T08:05:43;5.47;;;2.40;;
19877;SDS011;10101;52.204;9.910;2024-03-23T08:08:10;8.73;;;2.60;;
19877;SDS011;10101;52.204;9.910;2024-03-23T08:10:36;6.77;;;2.50;;
19877;SDS011;10101;52.204;9.910;2024-03-23T08:13:03;9.30;;;3.27;;
19877;SDS011;10101;52.204;9.910;2024-03-23T08:15:30;8.47;;;2.77;;
19877;SDS011;10101;52.204;9.910;2024-03-23T08:17:59;13.00;;;3.17;;
19877;SDS011;10101;52.204;9.910;2024-03-23T08:20:25;14.57;;;3.70;;
19877;SDS011;10101;52.204;9.910;2024-03-23T08:22:53;12.20;;;3.33;;
19877;SDS011;10101;52.204;9.910;2024-03-23T08:25:19;12.87;;;4.10;;
19877;SDS011;10101;52.204;9.910;2024-03-23T08:27:46;16.63;;;4.23;;
19877;SDS011;10101;52.204;9.910;2024-03-23T08:30:12;13.33;;;4.13;;
19877;SDS011;10101;52.204;9.910;2024-03-23T08:32:39;11.97;;;4.20;;
19877;SDS011;10101;52.204;9.910;2024-03-23T08:35:06;9.93;;;4.00;;
19877;SDS011;10101;52.204;9.910;2024-03-23T08:37:34;12.37;;;4.13;;
19877;SDS011;10101;52.204;9.910;2024-03-23T08:40:02;11.20;;;4.03;;
19877;SDS011;10101;52.204;9.910;2024-03-23T08:42:29;11.73;;;4.33;;
19877;SDS011;10101;52.204;9.910;2024-03-23T08:44:55;14.37;;;5.17;;
19877;SDS011;10101;52.204;9.910;2024-03-23T08:47:22;18.40;;;6.07;;
19877;SDS011;10101;52.204;9.910;2024-03-23T08:49:48;18.37;;;5.40;;
19877;SDS011;10101;52.204;9.910;2024-03-23T08:52:15;19.03;;;5.70;;
19877;SDS011;10101;52.204;9.910;2024-03-23T08:54:41;20.60;;;5.73;;
19877;SDS011;10101;52.204;9.910;2024-03-23T08:57:09;16.80;;;6.00;;
19877;SDS011;10101;52.204;9.910;2024-03-23T08:59:37;16.47;;;5.50;;
19877;SDS011;10101;52.204;9.910;2024-03-23T09:02:04;19.43;;;5.30;;
19877;SDS011;10101;52.204;9.910;2024-03-23T09:04:30;14.90;;;4.97;;
19877;SDS011;10101;52.204;9.910;2024-03-23T09:06:57;13.00;;;4.73;;
19877;SDS011;10101;52.204;9.910;2024-03-23T09:09:25;13.57;;;3.93;;
19877;SDS011;10101;52.204;9.910;2024-03-23T09:11:52;15.47;;;4.83;;
19877;SDS011;10101;52.204;9.910;2024-03-23T09:14:19;16.97;;;4.60;;
19877;SDS011;10101;52.204;9.910;2024-03-23T09:16:46;14.63;;;4.57;;
19877;SDS011;10101;52.204;9.910;2024-03-23T09:19:14;13.90;;;3.57;;
19877;SDS011;10101;52.204;9.910;2024-03-23T09:21:41;14.10;;;3.73;;
19877;SDS011;10101;52.204;9.910;2024-03-23T09:24:07;16.30;;;4.03;;
19877;SDS011;10101;52.204;9.910;2024-03-23T09:26:34;14.10;;;3.90;;
19877;SDS011;10101;52.204;9.910;2024-03-23T09:29:00;16.47;;;4.10;;
19877;SDS011;10101;52.204;9.910;2024-03-23T09:31:29;11.30;;;3.87;;
19877;SDS011;10101;52.204;9.910;2024-03-23T09:33:56;14.30;;;4.90;;
19877;SDS011;10101;52.204;9.910;2024-03-23T09:36:24;9.37;;;3.80;;
19877;SDS011;10101;52.204;9.910;2024-03-23T09:38:49;10.57;;;3.50;;
19877;SDS011;10101;52.204;9.910;2024-03-23T09:41:16;13.63;;;3.97;;
19877;SDS011;10101;52.204;9.910;2024-03-23T09:43:42;14.83;;;3.97;;
19877;SDS011;10101;52.204;9.910;2024-03-23T09:46:11;17.87;;;4.67;;
19877;SDS011;10101;52.204;9.910;2024-03-23T09:48:38;12.57;;;3.90;;
19877;SDS011;10101;52.204;9.910;2024-03-23T09:51:05;10.00;;;3.33;;
19877;SDS011;10101;52.204;9.910;2024-03-23T09:53:34;10.93;;;3.97;;
19877;SDS011;10101;52.204;9.910;2024-03-23T09:56:01;12.60;;;3.73;;
19877;SDS011;10101;52.204;9.910;2024-03-23T09:58:28;13.00;;;3.47;;
19877;SDS011;10101;52.204;9.910;2024-03-23T10:00:54;9.40;;;2.77;;
19877;SDS011;10101;52.204;9.910;2024-03-23T10:03:20;10.67;;;3.33;;
19877;SDS011;10101;52.204;9.910;2024-03-23T10:05:58;10.47;;;3.30;;
19877;SDS011;10101;52.204;9.910;2024-03-23T10:08:26;9.97;;;3.30;;
19877;SDS011;10101;52.204;9.910;2024-03-23T10:10:56;8.37;;;3.40;;
19877;SDS011;10101;52.204;9.910;2024-03-23T10:13:25;11.53;;;3.37;;
19877;SDS011;10101;52.204;9.910;2024-03-23T10:15:56;13.93;;;4.27;;
19877;SDS011;10101;52.204;9.910;2024-03-23T10:18:23;13.47;;;4.10;;
19877;SDS011;10101;52.204;9.910;2024-03-23T10:21:00;12.73;;;5.33;;
19877;SDS011;10101;52.204;9.910;2024-03-23T10:23:33;12.77;;;4.73;;
19877;SDS011;10101;52.204;9.910;2024-03-23T10:26:11;8.97;;;3.63;;
19877;SDS011;10101;52.204;9.910;2024-03-23T10:28:52;50.17;;;21.77;;
19877;SDS011;10101;52.204;9.910;2024-03-23T10:31:20;75.20;;;30.13;;
19877;SDS011;10101;52.204;9.910;2024-03-23T10:33:47;9.67;;;4.50;;
19877;SDS011;10101;52.204;9.910;2024-03-23T10:36:14;24.90;;;12.23;;
19877;SDS011;10101;52.204;9.910;2024-03-23T10:38:42;25.03;;;13.20;;
19877;SDS011;10101;52.204;9.910;2024-03-23T10:41:09;12.07;;;7.20;;
19877;SDS011;10101;52.204;9.910;2024-03-23T10:43:37;27.40;;;17.20;;
19877;SDS011;10101;52.204;9.910;2024-03-23T10:46:04;12.83;;;6.87;;
19877;SDS011;10101;52.204;9.910;2024-03-23T10:48:32;13.83;;;7.07;;
19877;SDS011;10101;52.204;9.910;2024-03-23T10:50:58;13.97;;;6.97;;
19877;SDS011;10101;52.204;9.910;2024-03-23T10:53:27;14.90;;;6.53;;
19877;SDS011;10101;52.204;9.910;2024-03-23T10:55:54;12.47;;;2.77;;
19877;SDS011;10101;52.204;9.910;2024-03-23T10:58:23;4.60;;;1.80;;
19877;SDS011;10101;52.204;9.910;2024-03-23T11:00:52;13.27;;;8.80;;
19877;SDS011;10101;52.204;9.910;2024-03-23T11:03:29;11.43;;;7.77;;
19877;SDS011;10101;52.204;9.910;2024-03-23T11:05:56;24.80;;;15.10;;
19877;SDS011;10101;52.204;9.910;2024-03-23T11:08:34;25.03;;;16.33;;
19877;SDS011;10101;52.204;9.910;2024-03-23T11:13:51;15.73;;;8.60;;
19877;SDS011;10101;52.204;9.910;2024-03-23T11:16:21;7.50;;;4.40;;
19877;SDS011;10101;52.204;9.910;2024-03-23T11:18:49;12.00;;;6.17;;
19877;SDS011;10101;52.204;9.910;2024-03-23T11:24:22;6.43;;;2.90;;
19877;SDS011;10101;52.204;9.910;2024-03-23T11:26:48;7.70;;;2.97;;
19877;SDS011;10101;52.204;9.910;2024-03-23T11:29:16;7.83;;;3.20;;
19877;SDS011;10101;52.204;9.910;2024-03-23T11:31:46;6.33;;;2.30;;
19877;SDS011;10101;52.204;9.910;2024-03-23T11:34:13;7.10;;;2.30;;
19877;SDS011;10101;52.204;9.910;2024-03-23T11:36:40;4.77;;;3.60;;
19877;SDS011;10101;52.204;9.910;2024-03-23T11:39:14;5.93;;;2.03;;
19877;SDS011;10101;52.204;9.910;2024-03-23T11:41:47;4.87;;;1.60;;
19877;SDS011;10101;52.204;9.910;2024-03-23T11:44:14;4.53;;;1.77;;
19877;SDS011;10101;52.204;9.910;2024-03-23T11:46:41;5.47;;;2.40;;
19877;SDS011;10101;52.204;9.910;2024-03-23T11:49:19;6.00;;;2.27;;
19877;SDS011;10101;52.204;9.910;2024-03-23T11:51:47;2.50;;;1.63;;
19877;SDS011;10101;52.204;9.910;2024-03-23T11:54:14;7.87;;;1.93;;
19877;SDS011;10101;52.204;9.910;2024-03-23T11:56:40;9.23;;;3.07;;
19877;SDS011;10101;52.204;9.910;2024-03-23T11:59:09;4.17;;;2.43;;
19877;SDS011;10101;52.204;9.910;2024-03-23T12:01:34;5.03;;;2.10;;
19877;SDS011;10101;52.204;9.910;2024-03-23T12:04:04;5.80;;;2.10;;
19877;SDS011;10101;52.204;9.910;2024-03-23T12:06:30;3.77;;;2.13;;
19877;SDS011;10101;52.204;9.910;2024-03-23T12:09:05;6.83;;;2.10;;
19877;SDS011;10101;52.204;9.910;2024-03-23T12:11:31;4.93;;;2.40;;
19877;SDS011;10101;52.204;9.910;2024-03-23T12:13:59;5.63;;;2.03;;
19877;SDS011;10101;52.204;9.910;2024-03-23T12:16:26;5.83;;;2.10;;
19877;SDS011;10101;52.204;9.910;2024-03-23T12:18:53;5.90;;;2.30;;
19877;SDS011;10101;52.204;9.910;2024-03-23T12:21:30;7.43;;;2.50;;
19877;SDS011;10101;52.204;9.910;2024-03-23T12:23:57;6.00;;;2.40;;
19877;SDS011;10101;52.204;9.910;2024-03-23T12:26:23;4.87;;;2.10;;
19877;SDS011;10101;52.204;9.910;2024-03-23T12:28:50;5.93;;;1.90;;
19877;SDS011;10101;52.204;9.910;2024-03-23T12:31:16;4.10;;;1.87;;
19877;SDS011;10101;52.204;9.910;2024-03-23T12:33:45;3.63;;;1.80;;
19877;SDS011;10101;52.204;9.910;2024-03-23T12:36:11;4.73;;;1.77;;
19877;SDS011;10101;52.204;9.910;2024-03-23T12:38:38;4.50;;;1.93;;
19877;SDS011;10101;52.204;9.910;2024-03-23T12:41:04;4.17;;;2.07;;
19877;SDS011;10101;52.204;9.910;2024-03-23T12:43:31;5.77;;;1.50;;
19877;SDS011;10101;52.204;9.910;2024-03-23T12:45:57;2.47;;;1.70;;
19877;SDS011;10101;52.204;9.910;2024-03-23T13:26:56;2.00;;;1.60;;
19877;SDS011;10101;52.204;9.910;2024-03-23T13:29:23;2.07;;;1.33;;
19877;SDS011;10101;52.204;9.910;2024-03-23T13:31:50;1.10;;;1.00;;
19877;SDS011;10101;52.204;9.910;2024-03-23T13:34:18;5.13;;;1.50;;
19877;SDS011;10101;52.204;9.910;2024-03-23T13:36:45;2.53;;;1.20;;
19877;SDS011;10101;52.204;9.910;2024-03-23T13:39:12;3.20;;;1.20;;
19877;SDS011;10101;52.204;9.910;2024-03-23T13:41:39;2.70;;;1.30;;
19877;SDS011;10101;52.204;9.910;2024-03-23T13:44:09;2.27;;;1.20;;
19877;SDS011;10101;52.204;9.910;2024-03-23T13:46:36;2.60;;;1.70;;
19877;SDS011;10101;52.204;9.910;2024-03-23T13:49:03;4.00;;;1.50;;
19877;SDS011;10101;52.204;9.910;2024-03-23T13:51:30;2.43;;;1.43;;
19877;SDS011;10101;52.204;9.910;2024-03-23T13:53:58;3.43;;;1.47;;
19877;SDS011;10101;52.204;9.910;2024-03-23T13:56:26;2.23;;;1.40;;
19877;SDS011;10101;52.204;9.910;2024-03-23T13:58:54;3.63;;;1.50;;
19877;SDS011;10101;52.204;9.910;2024-03-23T14:01:22;2.60;;;1.67;;
19877;SDS011;10101;52.204;9.910;2024-03-23T14:03:50;2.40;;;1.53;;
19877;SDS011;10101;52.204;9.910;2024-03-23T14:06:16;4.20;;;1.73;;
19877;SDS011;10101;52.204;9.910;2024-03-23T14:08:43;4.13;;;1.70;;
19877;SDS011;10101;52.204;9.910;2024-03-23T14:11:09;4.70;;;1.80;;
19877;SDS011;10101;52.204;9.910;2024-03-23T14:13:36;4.40;;;1.93;;
19877;SDS011;10101;52.204;9.910;2024-03-23T14:16:03;2.90;;;1.70;;
19877;SDS011;10101;52.204;9.910;2024-03-23T14:18:32;5.47;;;1.70;;
19877;SDS011;10101;52.204;9.910;2024-03-23T14:20:59;2.83;;;1.87;;
19877;SDS011;10101;52.204;9.910;2024-03-23T14:23:26;5.50;;;2.03;;
19877;SDS011;10101;52.204;9.910;2024-03-23T14:25:54;2.67;;;2.07;;
19877;SDS011;10101;52.204;9.910;2024-03-23T14:28:22;2.37;;;1.70;;
19877;SDS011;10101;52.204;9.910;2024-03-23T14:30:48;4.13;;;1.53;;
19877;SDS011;10101;52.204;9.910;2024-03-23T14:33:15;2.13;;;1.70;;
19877;SDS011;10101;52.204;9.910;2024-03-23T14:35:43;4.10;;;1.43;;
19877;SDS011;10101;52.204;9.910;2024-03-23T14:38:11;2.60;;;1.40;;
19877;SDS011;10101;52.204;9.910;2024-03-23T14:40:37;0.87;;;0.80;;
19877;SDS011;10101;52.204;9.910;2024-03-23T14:43:04;1.17;;;0.83;;
19877;SDS011;10101;52.204;9.910;2024-03-23T14:45:30;0.60;;;0.60;;
19877;SDS011;10101;52.204;9.910;2024-03-23T14:47:57;1.70;;;1.00;;
19877;SDS011;10101;52.204;9.910;2024-03-23T14:50:24;2.53;;;1.83;;
19877;SDS011;10101;52.204;9.910;2024-03-23T14:52:52;4.17;;;2.80;;
19877;SDS011;10101;52.204;9.910;2024-03-23T14:55:18;3.57;;;2.33;;
19877;SDS011;10101;52.204;9.910;2024-03-23T14:57:45;8.90;;;4.00;;
19877;SDS011;10101;52.204;9.910;2024-03-23T15:00:12;27.00;;;11.37;;
19877;SDS011;10101;52.204;9.910;2024-03-23T15:02:40;16.80;;;9.37;;
19877;SDS011;10101;52.204;9.910;2024-03-23T15:05:06;1.33;;;0.80;;
19877;SDS011;10101;52.204;9.910;2024-03-23T15:07:35;0.83;;;0.70;;
19877;SDS011;10101;52.204;9.910;2024-03-23T15:10:03;2.40;;;1.23;;
19877;SDS011;10101;52.204;9.910;2024-03-23T15:12:30;1.33;;;0.87;;
19877;SDS011;10101;52.204;9.910;2024-03-23T15:14:58;2.87;;;2.03;;
19877;SDS011;10101;52.204;9.910;2024-03-23T15:17:25;1.67;;;0.90;;
19877;SDS011;10101;52.204;9.910;2024-03-23T15:19:51;1.10;;;0.70;;
19877;SDS011;10101;52.204;9.910;2024-03-23T15:22:18;2.80;;;2.07;;
19877;SDS011;10101;52.204;9.910;2024-03-23T15:24:44;0.90;;;0.73;;
19877;SDS011;10101;52.204;9.910;2024-03-23T15:27:14;0.97;;;0.60;;
19877;SDS011;10101;52.204;9.910;2024-03-23T15:29:40;1.50;;;0.97;;
19877;SDS011;10101;52.204;9.910;2024-03-23T15:32:10;1.53;;;0.90;;
19877;SDS011;10101;52.204;9.910;2024-03-23T15:34:37;1.10;;;0.80;;
19877;SDS011;10101;52.204;9.910;2024-03-23T15:37:04;2.10;;;0.80;;
19877;SDS011;10101;52.204;9.910;2024-03-23T15:39:30;1.40;;;0.80;;
19877;SDS011;10101;52.204;9.910;2024-03-23T15:41:57;2.07;;;1.30;;
19877;SDS011;10101;52.204;9.910;2024-03-23T15:44:24;1.37;;;0.97;;
19877;SDS011;10101;52.204;9.910;2024-03-23T15:46:51;1.50;;;1.00;;
19877;SDS011;10101;52.204;9.910;2024-03-23T15:49:17;2.67;;;0.70;;
19877;SDS011;10101;52.204;9.910;2024-03-23T15:51:44;2.43;;;0.90;;
19877;SDS011;10101;52.204;9.910;2024-03-23T15:54:11;1.90;;;1.13;;
19877;SDS011;10101;52.204;9.910;2024-03-23T15:56:38;3.10;;;1.00;;
19877;SDS011;10101;52.204;9.910;2024-03-23T15:59:04;4.17;;;1.27;;
19877;SDS011;10101;52.204;9.910;2024-03-23T16:01:33;1.70;;;1.00;;
19877;SDS011;10101;52.204;9.910;2024-03-23T16:04:00;3.17;;;1.10;;
19877;SDS011;10101;52.204;9.910;2024-03-23T16:06:27;1.73;;;1.00;;
19877;SDS011;10101;52.204;9.910;2024-03-23T16:08:53;1.93;;;0.73;;
19877;SDS011;10101;52.204;9.910;2024-03-23T16:11:20;1.27;;;1.00;;
19877;SDS011;10101;52.204;9.910;2024-03-23T16:13:46;2.80;;;0.90;;
19877;SDS011;10101;52.204;9.910;2024-03-23T16:16:13;3.27;;;1.03;;
19877;SDS011;10101;52.204;9.910;2024-03-23T16:18:42;5.87;;;1.37;;
19877;SDS011;10101;52.204;9.910;2024-03-23T16:21:10;4.47;;;3.07;;
19877;SDS011;10101;52.204;9.910;2024-03-23T16:23:36;3.43;;;2.30;;